Etusivu
METAR-TAF:

METAR-TAF

Lentoasemat :

Craiova, Romania

Leveyspiiri: 44-14N, Pituuspiiri: 023-52E, korkeus merenpinnasta: 192 m

Tämänhetkinen sää

Tämä raportti tehtiin 46 minuuttia sitten, kello 22.30 UTC
Tuuli 6 kn kaakosta
Lämpötila 26°C
Kosteus 39%
Ilmanpaine 1012 hPa
Näkyvyys 10 km tai enemmän
ei pilviä alle 1500 m:ssä eikä cumulonimbus-pilviä

METAR: LRCV 132230Z 13006KT CAVOK 26/11 Q1012

Aika: 02:16 (23:16 UTC)

Sääennuste

Tämä raportti tehtiin 3 tuntia ja 16 minuuttia sitten, kello 20.00 UTC
Ennuste voimassa 13. päivästä klo 21 UTC - 14. päivään klo 06 UTC
Tuuli 6 kn kaakosta
Näkyvyys 10 km tai enemmän
ei pilviä alle 1500 m:ssä eikä cumulonimbus-pilviä

TAF: LRCV 132000Z 1321/1406 14006KT CAVOK

Säähavainnot ja -ennusteet yli 4000 lentoasemalta (METAR- ja TAF-raportit).

Käytössä olevat sääasemat on merkitty karttaan keltaisilla ja punaisilla pisteillä.

Aseta hiiri pisteen päälle nähdäksesi sääaseman nimen.

Klikkaa sitten nähdäksesi säähavainnot ja -ennusteet.

Kartan vaihtaminen: klikkaa mustalla rastilla varustettuja vihreitä pisteitä, niin voit zoomata sisään; viivalla varustettua vihreää pistettä, niin voit zoomata ulos tai vihreitä nuolia, niin pääset viereisille kartoille.


METAR-TAF: